createdAt,value
2023-01-21T00:03:29.078Z,92927.77
2023-01-21T00:08:36.019Z,92922.55
2023-01-21T00:13:44.305Z,92930.12
2023-01-21T00:18:51.151Z,92914.34
2023-01-21T00:23:58.187Z,92908.62
2023-01-21T00:29:06.418Z,92911.96
2023-01-21T00:34:13.677Z,92903.43
2023-01-21T00:39:20.743Z,92895.41
2023-01-21T00:44:27.542Z,92877.53
2023-01-21T00:49:34.697Z,92885.75
2023-01-21T00:54:41.982Z,92873.77
2023-01-21T00:59:48.911Z,92889.05
2023-01-21T01:04:56.046Z,92868.28
2023-01-21T01:10:03.084Z,92852.25
2023-01-21T01:15:12.380Z,92865.44
2023-01-21T01:20:19.470Z,92867.70
2023-01-21T01:25:26.135Z,92858.89
2023-01-21T01:30:33.954Z,92861.86
2023-01-21T01:35:42.376Z,92853.16
2023-01-21T01:40:52.881Z,92856.23
2023-01-21T01:46:00.102Z,92845.94
2023-01-21T01:51:08.825Z,92846.47
2023-01-21T01:56:17.108Z,92844.17
2023-01-21T02:01:24.301Z,92833.52
2023-01-21T02:06:31.145Z,92824.06
2023-01-21T02:11:39.983Z,92821.20
2023-01-21T02:17:00.657Z,92820.11
2023-01-21T02:22:31.222Z,92808.78
2023-01-21T02:28:14.363Z,92804.89
2023-01-21T02:33:28.300Z,92789.38
2023-01-21T02:38:54.173Z,92796.42
2023-01-21T02:44:20.189Z,92794.11
2023-01-21T02:49:42.863Z,92799.30
2023-01-21T02:54:56.024Z,92796.84
2023-01-21T03:00:06.316Z,92800.52
2023-01-21T03:05:47.360Z,92796.91
2023-01-21T03:11:07.239Z,92783.12
2023-01-21T03:16:34.699Z,92795.95
2023-01-21T03:21:41.978Z,92787.86
2023-01-21T03:26:52.042Z,92788.41
2023-01-21T03:32:04.277Z,92794.98
2023-01-21T03:37:21.794Z,92793.02
2023-01-21T03:42:29.491Z,92776.91
2023-01-21T03:47:39.687Z,92772.51
2023-01-21T03:52:47.598Z,92786.01
2023-01-21T03:57:54.314Z,92790.27
2023-01-21T04:03:01.143Z,92789.06
2023-01-21T04:08:07.984Z,92801.70
2023-01-21T04:13:14.988Z,92777.80
2023-01-21T04:18:22.161Z,92789.55
2023-01-21T04:23:28.971Z,92780.52
2023-01-21T04:28:36.167Z,92797.16
2023-01-21T04:33:43.693Z,92804.31
2023-01-21T04:38:52.011Z,92793.45
2023-01-21T04:43:58.895Z,92819.95
2023-01-21T04:49:05.798Z,92816.73
2023-01-21T04:54:13.128Z,92830.25
2023-01-21T04:59:19.898Z,92858.41
2023-01-21T05:04:27.015Z,92855.73
2023-01-21T05:09:35.205Z,92870.68
2023-01-21T05:14:42.106Z,92875.11
2023-01-21T05:19:49.102Z,92878.19
2023-01-21T05:24:57.423Z,92900.06
2023-01-21T05:30:05.330Z,92889.66
2023-01-21T05:35:14.292Z,92887.28
2023-01-21T05:40:21.161Z,92892.95
2023-01-21T05:45:28.132Z,92905.05
2023-01-21T05:50:34.988Z,92892.17
2023-01-21T05:55:42.224Z,92913.47
2023-01-21T06:00:49.655Z,92921.94
2023-01-21T06:05:58.027Z,92907.70
2023-01-21T06:11:04.761Z,92928.34
2023-01-21T06:16:11.644Z,92912.73
2023-01-21T06:21:19.058Z,92937.64
2023-01-21T06:26:27.217Z,92932.68
2023-01-21T06:31:34.255Z,92935.42
2023-01-21T06:36:42.941Z,92932.39
2023-01-21T06:41:49.808Z,92947.60
2023-01-21T06:47:01.144Z,92949.70
2023-01-21T06:52:06.136Z,92946.04
2023-01-21T06:57:13.285Z,92961.53
2023-01-21T07:02:20.177Z,92968.27
2023-01-21T07:07:27.393Z,92975.41
2023-01-21T07:12:34.341Z,92983.73
2023-01-21T07:17:41.350Z,92994.83
2023-01-21T07:22:48.331Z,93011.17
2023-01-21T07:27:54.989Z,92993.88
2023-01-21T07:33:09.991Z,93006.47
2023-01-21T07:38:16.844Z,93012.63
2023-01-21T07:43:23.775Z,93026.35
2023-01-21T07:48:30.540Z,93038.25
2023-01-21T07:53:37.221Z,93036.02
2023-01-21T07:58:44.056Z,93051.27
2023-01-21T08:03:50.867Z,93042.50
2023-01-21T08:08:57.679Z,93046.61
2023-01-21T08:14:04.570Z,93065.37
2023-01-21T08:19:13.909Z,93057.05
2023-01-21T08:24:20.760Z,93056.03
2023-01-21T08:29:28.045Z,93057.19
2023-01-21T08:34:37.718Z,93058.72
2023-01-21T08:39:45.049Z,93060.31
2023-01-21T08:44:51.924Z,93079.34
2023-01-21T08:49:58.921Z,93045.77
2023-01-21T08:55:06.365Z,93028.60
2023-01-21T09:00:14.634Z,93038.11
2023-01-21T09:05:21.931Z,93045.77
2023-01-21T09:10:46.466Z,93045.05
2023-01-21T09:15:53.253Z,92872.11
2023-01-21T09:21:05.161Z,93055.14
2023-01-21T09:26:24.709Z,93058.97
2023-01-21T09:31:32.936Z,93067.13
2023-01-21T09:36:40.532Z,93057.84
2023-01-21T09:41:58.604Z,93044.41
2023-01-21T09:47:33.169Z,93041.66
2023-01-21T09:52:45.705Z,93042.13
2023-01-21T09:58:11.315Z,93027.98
2023-01-21T10:03:27.892Z,93026.78
2023-01-21T10:09:01.338Z,93032.66
2023-01-21T10:14:45.174Z,93037.17
2023-01-21T10:20:02.893Z,93024.48
2023-01-21T10:25:32.123Z,93016.99
2023-01-21T10:30:47.419Z,93017.30
2023-01-21T10:36:22.813Z,93010.30
2023-01-21T10:41:50.024Z,93012.42
2023-01-21T10:47:20.329Z,93007.66
2023-01-21T10:52:47.872Z,93005.81
2023-01-21T10:58:04.045Z,92992.02
2023-01-21T11:03:18.035Z,93004.61
2023-01-21T11:08:27.926Z,93003.27
2023-01-21T11:13:35.029Z,93008.23
2023-01-21T11:18:43.890Z,92998.61
2023-01-21T11:24:01.068Z,93007.16
2023-01-21T11:29:19.370Z,93007.22
2023-01-21T11:34:26.364Z,93007.53
2023-01-21T11:39:36.718Z,93004.15
2023-01-21T11:44:56.799Z,92999.61
2023-01-21T11:50:17.238Z,92997.42
2023-01-21T11:55:26.708Z,92998.08
2023-01-21T12:00:37.135Z,92994.42
2023-01-21T12:05:45.660Z,92987.56
2023-01-21T12:10:56.670Z,92985.09
2023-01-21T12:16:19.827Z,92992.94
2023-01-21T12:21:54.614Z,92992.16
2023-01-21T12:27:17.186Z,92991.58
2023-01-21T12:32:46.146Z,92986.35
2023-01-21T12:37:57.490Z,92997.63
2023-01-21T12:43:07.609Z,92989.93
2023-01-21T12:48:22.326Z,92886.38
2023-01-21T12:53:48.105Z,92993.88
2023-01-21T12:59:19.839Z,92994.86
2023-01-21T13:04:39.727Z,92991.40
2023-01-21T13:09:56.829Z,93002.87
2023-01-21T13:15:16.879Z,93002.41
2023-01-21T13:20:25.474Z,93011.28
2023-01-21T13:25:36.737Z,93016.97
2023-01-21T13:30:53.922Z,92973.98
2023-01-21T13:36:08.278Z,93023.17
2023-01-21T13:41:45.049Z,93033.27
2023-01-21T13:47:12.427Z,93032.12
2023-01-21T13:52:54.810Z,93044.33
2023-01-21T13:58:23.750Z,93043.52
2023-01-21T14:03:49.590Z,93058.45
2023-01-21T14:09:12.763Z,93058.93
2023-01-21T14:15:00.406Z,93063.33
2023-01-21T14:20:35.337Z,93070.70
2023-01-21T14:26:11.337Z,93079.36
2023-01-21T14:31:25.302Z,93086.56
2023-01-21T14:36:54.579Z,93091.73
2023-01-21T14:42:16.364Z,93092.02
2023-01-21T14:47:42.209Z,93096.14
2023-01-21T14:52:49.982Z,93112.82
2023-01-21T14:57:58.576Z,93118.28
2023-01-21T15:03:18.822Z,93133.86
2023-01-21T15:08:46.130Z,93136.59
2023-01-21T15:14:18.277Z,93162.05
2023-01-21T15:19:29.320Z,93151.03
2023-01-21T15:24:44.853Z,93166.64
2023-01-21T15:30:08.453Z,93173.42
2023-01-21T15:35:40.568Z,93177.00
2023-01-21T15:40:52.022Z,93189.27
2023-01-21T15:46:23.957Z,93201.56
2023-01-21T15:51:51.449Z,93195.91
2023-01-21T15:57:26.128Z,93207.73
2023-01-21T16:02:34.413Z,93209.97
2023-01-21T16:08:01.303Z,93217.33
2023-01-21T16:13:21.343Z,93218.70
2023-01-21T16:18:41.203Z,93213.58
2023-01-21T16:23:48.027Z,93226.55
2023-01-21T16:28:54.993Z,93230.22
2023-01-21T16:34:03.391Z,93231.89
2023-01-21T16:39:12.096Z,93232.39
2023-01-21T16:44:19.402Z,93233.70
2023-01-21T16:49:26.220Z,93238.47
2023-01-21T16:54:34.676Z,93242.58
2023-01-21T16:59:45.043Z,93245.11
2023-01-21T17:04:53.341Z,93245.90
2023-01-21T17:10:25.775Z,93242.02
2023-01-21T17:15:45.727Z,93245.21
2023-01-21T17:21:14.982Z,93248.74
2023-01-21T17:26:31.626Z,93257.19
2023-01-21T17:31:43.889Z,93257.11
2023-01-21T17:36:53.282Z,93261.55
2023-01-21T17:42:04.771Z,93267.61
2023-01-21T17:47:32.026Z,93268.70
2023-01-21T17:52:38.936Z,93286.01
2023-01-21T17:57:47.296Z,93288.61
2023-01-21T18:02:54.078Z,93285.26
2023-01-21T18:08:00.812Z,93294.27
2023-01-21T18:13:07.827Z,93294.27
2023-01-21T18:18:24.604Z,93300.90
2023-01-21T18:23:32.355Z,93305.31
2023-01-21T18:28:39.108Z,93313.06
2023-01-21T18:33:46.064Z,93320.16
2023-01-21T18:38:55.562Z,93318.10
2023-01-21T18:44:02.274Z,93324.96
2023-01-21T18:49:18.492Z,93333.31
2023-01-21T18:54:25.192Z,93345.11
2023-01-21T18:59:32.008Z,93344.31
2023-01-21T19:04:38.839Z,93346.20
2023-01-21T19:09:50.055Z,93345.73
2023-01-21T19:14:57.149Z,93346.92
2023-01-21T19:20:09.563Z,93353.50
2023-01-21T19:25:19.211Z,93357.55
2023-01-21T19:30:29.940Z,93351.00
2023-01-21T19:35:40.400Z,93362.17
2023-01-21T19:40:47.599Z,93363.68
2023-01-21T19:45:56.172Z,93364.19
2023-01-21T19:51:03.482Z,93372.71
2023-01-21T19:56:13.720Z,93374.14
2023-01-21T20:01:20.624Z,93386.16
2023-01-21T20:06:31.000Z,93384.81
2023-01-21T20:11:37.850Z,93390.02
2023-01-21T20:16:52.980Z,93396.12
2023-01-21T20:22:02.442Z,93397.78
2023-01-21T20:27:11.516Z,93409.83
2023-01-21T20:32:18.285Z,93412.47
2023-01-21T20:37:25.604Z,93412.61
2023-01-21T20:42:34.367Z,93414.29
2023-01-21T20:47:49.581Z,93415.59
2023-01-21T20:52:52.268Z,93422.36
2023-01-21T20:57:59.485Z,93422.11
2023-01-21T21:03:06.902Z,93421.58
2023-01-21T21:08:22.812Z,93425.20
2023-01-21T21:13:30.994Z,93428.61
2023-01-21T21:18:37.659Z,93427.45
2023-01-21T21:23:47.873Z,93447.55
2023-01-21T21:28:58.013Z,93445.53
2023-01-21T21:34:04.861Z,93444.14
2023-01-21T21:39:11.565Z,93453.60
2023-01-21T21:44:18.412Z,93453.58
2023-01-21T21:49:25.172Z,93464.39
2023-01-21T21:54:34.516Z,93465.89
2023-01-21T21:59:42.714Z,93472.91
2023-01-21T22:04:49.527Z,93470.60
2023-01-21T22:09:56.378Z,93467.11
2023-01-21T22:15:03.302Z,93465.41
2023-01-21T22:20:12.281Z,93459.59
2023-01-21T22:25:19.630Z,93459.98
2023-01-21T22:30:28.150Z,93456.08
2023-01-21T22:35:36.008Z,93455.59
2023-01-21T22:40:42.692Z,93450.69
2023-01-21T22:45:52.183Z,93451.20
2023-01-21T22:51:01.759Z,93447.39
2023-01-21T22:56:09.236Z,93446.78
2023-01-21T23:01:29.557Z,93445.27
2023-01-21T23:06:37.838Z,93445.38
2023-01-21T23:11:45.624Z,93440.77
2023-01-21T23:16:54.638Z,93434.75
2023-01-21T23:22:01.684Z,93441.25
2023-01-21T23:27:08.493Z,93446.66
2023-01-21T23:32:15.752Z,93441.16
2023-01-21T23:37:22.575Z,93437.83
2023-01-21T23:42:29.371Z,93433.42
2023-01-21T23:47:36.352Z,93434.05
2023-01-21T23:52:44.208Z,93440.05
2023-01-21T23:57:51.030Z,93450.55
